Time;durP1;ratioP1;P1;durP2;ratioP2;P2;SDS_P1;SDS_P2;PMS_P1;PMS_P2;Temp;Humidity;BMP_temperature;BMP_pressure;BME280_temperature;BME280_humidity;BME280_pressure;Samples;Min_cycle;Max_cycle;Signal;HPM_P1;HPM_P2
2023/07/28 00:00:22;;;;;;;1.83;1.70;;;16.60;99.90;;;;;;4978940;28;20439;-89
2023/07/28 00:02:49;;;;;;;2.33;2.07;;;16.50;99.90;;;;;;4993012;28;20454;-90
2023/07/28 00:05:15;;;;;;;3.20;2.23;;;16.60;99.90;;;;;;4985988;28;20434;-88
2023/07/28 00:07:42;;;;;;;2.17;2.00;;;16.60;99.90;;;;;;4981811;28;20496;-88
2023/07/28 00:10:10;;;;;;;2.43;2.23;;;16.50;99.90;;;;;;4994148;28;20447;-88
2023/07/28 00:12:36;;;;;;;2.60;1.80;;;16.50;99.90;;;;;;4993447;28;20426;-88
2023/07/28 00:15:03;;;;;;;2.43;2.07;;;16.50;99.90;;;;;;4990993;28;20440;-89
2023/07/28 00:17:31;;;;;;;3.33;2.30;;;16.60;99.90;;;;;;4981199;28;20460;-88
2023/07/28 00:19:58;;;;;;;1.90;1.80;;;16.50;99.90;;;;;;4989076;28;21074;-88
2023/07/28 00:22:25;;;;;;;2.77;1.90;;;16.70;99.90;;;;;;4979122;28;20447;-88
2023/07/28 00:24:51;;;;;;;2.17;2.07;;;16.50;99.90;;;;;;4984953;28;20438;-88
2023/07/28 00:27:18;;;;;;;3.70;1.90;;;16.50;99.90;;;;;;4986634;28;20494;-89
2023/07/28 00:29:45;;;;;;;6.47;2.27;;;16.50;99.90;;;;;;4993072;28;20459;-89
2023/07/28 00:32:11;;;;;;;4.40;2.57;;;16.50;99.90;;;;;;4977479;28;20484;-88
2023/07/28 00:34:39;;;;;;;11.37;2.53;;;16.50;99.90;;;;;;4986155;28;20431;-87
2023/07/28 00:37:06;;;;;;;6.03;2.10;;;16.40;99.90;;;;;;4992310;28;20430;-88
2023/07/28 00:39:33;;;;;;;3.50;2.00;;;16.50;99.90;;;;;;4987362;28;20466;-90
2023/07/28 00:42:00;;;;;;;7.93;2.40;;;16.40;99.90;;;;;;4983475;28;20464;-88
2023/07/28 00:44:26;;;;;;;3.30;1.90;;;16.30;99.90;;;;;;4994632;28;20458;-89
2023/07/28 00:46:53;;;;;;;2.50;2.30;;;16.30;99.90;;;;;;4996395;28;20476;-88
2023/07/28 00:49:20;;;;;;;2.70;2.17;;;16.30;99.90;;;;;;4977119;28;20981;-88
2023/07/28 00:51:50;;;;;;;3.30;2.00;;;16.30;99.90;;;;;;4993181;28;20417;-88
2023/07/28 00:54:18;;;;;;;5.57;2.23;;;16.30;99.90;;;;;;4981964;28;20825;-88
2023/07/28 00:56:45;;;;;;;4.30;2.53;;;16.40;99.90;;;;;;4988661;28;20476;-89
2023/07/28 00:59:12;;;;;;;6.70;2.10;;;16.40;99.90;;;;;;4996928;28;21025;-88
2023/07/28 01:01:39;;;;;;;8.27;2.20;;;16.40;99.90;;;;;;5004624;28;20447;-91
2023/07/28 01:04:06;;;;;;;2.47;2.27;;;16.40;99.90;;;;;;5021121;28;20421;-92
2023/07/28 01:06:41;;;;;;;7.93;2.70;;;16.30;99.90;;;;;;5016775;28;20469;-88
2023/07/28 01:09:14;;;;;;;3.87;1.97;;;16.30;99.90;;;;;;4996925;28;20453;-88
2023/07/28 01:11:54;;;;;;;9.77;2.33;;;16.30;99.90;;;;;;4996966;28;20517;-90
2023/07/28 01:14:20;;;;;;;4.60;2.13;;;16.30;99.90;;;;;;4997201;28;20925;-88
2023/07/28 01:16:47;;;;;;;2.63;2.30;;;16.30;99.90;;;;;;4988522;28;21011;-88
2023/07/28 01:19:18;;;;;;;2.50;2.10;;;16.30;99.90;;;;;;4988627;28;20461;-89
2023/07/28 01:21:49;;;;;;;6.57;2.10;;;16.40;99.90;;;;;;4996281;28;20517;-89
2023/07/28 01:24:22;;;;;;;3.77;2.30;;;16.30;99.90;;;;;;4979995;28;20433;-88
2023/07/28 01:26:51;;;;;;;4.47;2.00;;;16.30;99.90;;;;;;4996307;28;20490;-89
2023/07/28 01:29:20;;;;;;;8.73;2.40;;;16.30;99.90;;;;;;4993233;28;20442;-89
2023/07/28 01:31:47;;;;;;;3.00;1.90;;;16.40;99.90;;;;;;4985452;28;20422;-89
2023/07/28 01:34:14;;;;;;;4.00;2.30;;;16.40;99.90;;;;;;4996456;28;20462;-90
2023/07/28 01:36:41;;;;;;;6.13;2.53;;;16.40;99.90;;;;;;4989336;28;20966;-89
2023/07/28 01:39:07;;;;;;;8.70;2.20;;;16.40;99.90;;;;;;4994305;28;20466;-89
2023/07/28 01:41:34;;;;;;;3.73;2.53;;;16.40;99.90;;;;;;4996525;28;20840;-89
2023/07/28 01:44:02;;;;;;;2.47;2.27;;;16.40;99.90;;;;;;4987043;28;20455;-89
2023/07/28 01:46:29;;;;;;;4.53;2.50;;;16.40;99.90;;;;;;4990071;28;20451;-89
2023/07/28 01:48:55;;;;;;;2.80;2.30;;;16.50;99.90;;;;;;4988096;28;20476;-88
2023/07/28 01:51:22;;;;;;;2.53;2.07;;;16.50;99.90;;;;;;4992144;28;20419;-89
2023/07/28 01:53:49;;;;;;;4.50;2.43;;;16.40;99.90;;;;;;4984659;28;20456;-88
2023/07/28 01:56:15;;;;;;;5.73;2.80;;;16.40;99.90;;;;;;4987206;28;20426;-89
2023/07/28 01:58:42;;;;;;;2.63;2.37;;;16.50;99.90;;;;;;4995849;28;20529;-89
2023/07/28 02:01:13;;;;;;;3.63;2.57;;;16.40;99.90;;;;;;4985829;28;20454;-90
2023/07/28 02:03:40;;;;;;;6.40;2.63;;;16.40;99.90;;;;;;4990833;28;20442;-89
2023/07/28 02:06:06;;;;;;;2.30;2.10;;;16.40;99.90;;;;;;4981714;28;20437;-88
2023/07/28 02:08:33;;;;;;;2.37;2.00;;;16.40;99.90;;;;;;4976733;28;20937;-89
2023/07/28 02:10:59;;;;;;;3.10;1.97;;;16.40;99.90;;;;;;4993655;28;20916;-89
2023/07/28 02:13:26;;;;;;;4.20;1.90;;;16.40;99.90;;;;;;4995738;28;20541;-88
2023/07/28 02:15:53;;;;;;;4.60;2.40;;;16.40;99.90;;;;;;4988032;28;20459;-89
2023/07/28 02:18:21;;;;;;;2.10;1.90;;;16.40;99.90;;;;;;4995436;28;20440;-89
2023/07/28 02:20:49;;;;;;;4.30;1.97;;;16.50;99.90;;;;;;4995850;28;20449;-89
2023/07/28 02:23:16;;;;;;;3.60;2.10;;;16.40;99.90;;;;;;4979637;28;20541;-89
2023/07/28 02:25:43;;;;;;;2.93;1.90;;;16.40;99.90;;;;;;4995177;28;20456;-89
2023/07/28 02:28:11;;;;;;;2.20;2.00;;;16.40;99.90;;;;;;4995046;28;20467;-90
2023/07/28 02:30:38;;;;;;;5.90;2.23;;;16.50;99.90;;;;;;4995324;28;20960;-89
2023/07/28 02:33:04;;;;;;;4.63;2.00;;;16.40;99.90;;;;;;4987605;28;20443;-90
2023/07/28 02:35:33;;;;;;;3.20;1.87;;;16.40;99.90;;;;;;4990970;28;20476;-90
2023/07/28 02:37:59;;;;;;;2.53;1.80;;;16.50;99.90;;;;;;4984246;28;20483;-89
2023/07/28 02:40:26;;;;;;;7.60;2.23;;;16.60;99.90;;;;;;4995180;28;20537;-89
2023/07/28 02:42:53;;;;;;;2.30;1.77;;;16.50;99.90;;;;;;4988148;28;20494;-89
2023/07/28 02:45:20;;;;;;;1.93;1.83;;;16.50;99.90;;;;;;4987304;28;20502;-89
2023/07/28 02:47:46;;;;;;;2.07;1.80;;;16.50;99.90;;;;;;4999965;28;20486;-92
2023/07/28 02:50:13;;;;;;;4.13;1.70;;;16.50;99.90;;;;;;4992597;28;20422;-88
2023/07/28 02:52:41;;;;;;;3.40;1.50;;;16.50;99.90;;;;;;4995146;28;20446;-89
2023/07/28 02:55:08;;;;;;;2.60;1.90;;;16.50;99.90;;;;;;4995077;28;20438;-89
2023/07/28 02:57:35;;;;;;;4.60;1.63;;;16.50;99.90;;;;;;4982010;28;20462;-89
2023/07/28 03:00:02;;;;;;;2.37;1.70;;;16.50;99.90;;;;;;4983616;28;20491;-89
2023/07/28 03:02:29;;;;;;;2.07;1.80;;;16.50;99.90;;;;;;4983968;28;20456;-88
2023/07/28 03:04:56;;;;;;;5.30;1.80;;;16.50;99.90;;;;;;4990936;28;20501;-89
2023/07/28 03:07:22;;;;;;;5.00;1.50;;;16.50;99.90;;;;;;4980698;28;20422;-89
2023/07/28 03:09:50;;;;;;;3.37;1.40;;;16.50;99.90;;;;;;4994407;28;20949;-89
2023/07/28 03:12:17;;;;;;;4.40;1.40;;;16.50;99.90;;;;;;4994474;28;20521;-87
2023/07/28 03:14:44;;;;;;;4.53;1.60;;;16.50;99.90;;;;;;4989215;28;20453;-91
2023/07/28 03:17:11;;;;;;;2.37;1.33;;;16.60;99.90;;;;;;4983112;28;20422;-90
2023/07/28 03:19:37;;;;;;;6.10;1.70;;;16.60;99.90;;;;;;4987759;28;20486;-90
2023/07/28 03:22:04;;;;;;;1.20;1.10;;;16.60;99.90;;;;;;4994524;28;20445;-89
2023/07/28 03:24:31;;;;;;;3.30;1.37;;;16.60;99.90;;;;;;4995011;28;20446;-90
2023/07/28 03:26:59;;;;;;;3.80;1.40;;;16.70;99.90;;;;;;4986973;28;20434;-89
2023/07/28 03:29:26;;;;;;;2.50;1.63;;;16.50;99.90;;;;;;4983290;28;20468;-90
2023/07/28 03:31:52;;;;;;;1.97;1.40;;;16.50;99.90;;;;;;4982657;28;20456;-90
2023/07/28 03:34:19;;;;;;;2.87;1.40;;;16.40;99.90;;;;;;4985701;28;21024;-89
2023/07/28 03:36:45;;;;;;;3.37;1.60;;;16.50;99.90;;;;;;4995052;28;20861;-89
2023/07/28 03:39:12;;;;;;;1.50;1.40;;;16.50;99.90;;;;;;4978272;28;20871;-89
2023/07/28 03:41:39;;;;;;;4.27;1.40;;;16.50;99.90;;;;;;4981071;28;20456;-89
2023/07/28 03:44:07;;;;;;;1.70;1.40;;;16.50;99.90;;;;;;4982923;28;20471;-91
2023/07/28 03:46:34;;;;;;;4.70;1.67;;;16.50;99.90;;;;;;4987302;28;20916;-90
2023/07/28 03:49:00;;;;;;;4.90;1.67;;;16.50;99.90;;;;;;4993816;28;20825;-89
2023/07/28 03:51:27;;;;;;;3.00;1.50;;;16.50;99.90;;;;;;4982721;28;20421;-88
2023/07/28 03:53:54;;;;;;;1.97;1.63;;;16.50;99.90;;;;;;4989220;28;20977;-90
2023/07/28 03:56:20;;;;;;;4.10;1.63;;;16.50;99.90;;;;;;4985939;28;20460;-90
2023/07/28 03:58:47;;;;;;;1.70;1.43;;;16.50;99.90;;;;;;4993498;28;20500;-87
2023/07/28 04:01:15;;;;;;;2.10;1.43;;;16.50;99.90;;;;;;4983846;28;20492;-88
2023/07/28 04:03:42;;;;;;;1.60;1.50;;;16.50;99.90;;;;;;4986958;28;20490;-90
2023/07/28 04:06:11;;;;;;;1.87;1.47;;;16.50;99.90;;;;;;4987256;28;20438;-89
2023/07/28 04:08:38;;;;;;;3.67;1.60;;;16.50;99.90;;;;;;4987382;28;20540;-90
2023/07/28 04:11:05;;;;;;;7.70;1.70;;;16.70;99.90;;;;;;5000325;28;20453;-93
2023/07/28 04:13:31;;;;;;;3.70;2.33;;;16.60;99.90;;;;;;5017833;28;20435;-94
2023/07/28 04:15:58;;;;;;;3.73;2.67;;;16.70;99.90;;;;;;5007939;28;20460;-90
2023/07/28 04:18:26;;;;;;;3.20;2.60;;;16.60;99.90;;;;;;4984506;28;20483;-88
2023/07/28 04:20:53;;;;;;;9.50;2.37;;;16.60;99.90;;;;;;4993690;28;20490;-90
2023/07/28 04:23:19;;;;;;;5.57;2.40;;;16.70;99.90;;;;;;4991612;28;20459;-90
2023/07/28 04:25:46;;;;;;;3.20;2.10;;;16.70;99.90;;;;;;4979574;28;20937;-90
2023/07/28 04:28:13;;;;;;;2.73;2.07;;;16.70;99.90;;;;;;4984686;28;20850;-89
2023/07/28 04:30:39;;;;;;;2.57;1.77;;;16.70;99.90;;;;;;4992103;28;20459;-89
2023/07/28 04:33:06;;;;;;;11.70;2.23;;;16.70;99.90;;;;;;4985296;28;20487;-89
2023/07/28 04:35:34;;;;;;;8.60;2.13;;;16.70;99.90;;;;;;4985633;28;20458;-90
2023/07/28 04:38:01;;;;;;;7.67;1.97;;;16.70;99.90;;;;;;4993477;28;20810;-89
2023/07/28 04:40:27;;;;;;;7.27;1.90;;;16.60;99.90;;;;;;4985128;28;21007;-89
2023/07/28 04:42:54;;;;;;;11.50;2.30;;;16.70;99.90;;;;;;4992899;28;21015;-90
2023/07/28 04:45:21;;;;;;;3.00;1.70;;;16.70;99.90;;;;;;4993243;28;20433;-89
2023/07/28 04:47:48;;;;;;;4.13;1.60;;;16.60;99.90;;;;;;4993278;28;20485;-89
2023/07/28 04:50:14;;;;;;;12.03;2.47;;;16.50;99.90;;;;;;4977943;28;20463;-89
2023/07/28 04:52:42;;;;;;;10.63;2.57;;;16.70;99.90;;;;;;4992652;28;20494;-89
2023/07/28 04:55:09;;;;;;;3.53;1.90;;;16.50;99.90;;;;;;4976790;28;20449;-89
2023/07/28 04:57:36;;;;;;;8.53;1.90;;;16.70;99.90;;;;;;4992726;28;20878;-89
2023/07/28 05:00:03;;;;;;;9.60;2.30;;;16.70;99.90;;;;;;4992744;28;20518;-90
2023/07/28 05:02:30;;;;;;;10.67;1.93;;;16.70;99.90;;;;;;4993034;28;20484;-90
2023/07/28 05:05:01;;;;;;;11.87;2.53;;;16.70;99.90;;;;;;4993464;28;20435;-90
2023/07/28 05:07:28;;;;;;;7.50;2.10;;;16.70;99.90;;;;;;4998616;28;20535;-90
2023/07/28 05:09:56;;;;;;;9.63;2.20;;;16.80;99.90;;;;;;4992925;28;20459;-90
2023/07/28 05:12:23;;;;;;;13.73;3.20;;;16.80;99.90;;;;;;5000956;28;20459;-91
2023/07/28 05:14:50;;;;;;;8.73;1.97;;;16.80;99.90;;;;;;5000047;28;20502;-89
2023/07/28 05:17:16;;;;;;;6.50;1.97;;;16.80;99.90;;;;;;4984691;28;20464;-89
2023/07/28 05:19:43;;;;;;;6.40;2.10;;;16.80;99.90;;;;;;4992578;28;20981;-89
2023/07/28 05:22:10;;;;;;;11.07;2.07;;;16.80;99.90;;;;;;4992885;28;20506;-88
2023/07/28 05:24:37;;;;;;;11.83;2.10;;;17.00;99.90;;;;;;4993199;28;20455;-88
2023/07/28 05:27:05;;;;;;;4.30;1.90;;;16.90;99.90;;;;;;4993678;28;20447;-90
2023/07/28 05:29:32;;;;;;;4.70;1.90;;;16.90;99.90;;;;;;4985464;28;20467;-89
2023/07/28 05:31:59;;;;;;;11.63;2.17;;;16.90;99.90;;;;;;4992860;28;20456;-89
2023/07/28 05:34:26;;;;;;;5.43;2.00;;;16.90;99.90;;;;;;4995392;28;20467;-90
2023/07/28 05:36:53;;;;;;;8.50;1.90;;;17.00;99.90;;;;;;4998483;28;20466;-89
2023/07/28 05:39:19;;;;;;;2.43;1.67;;;17.00;99.90;;;;;;4989905;28;20472;-90
2023/07/28 05:41:46;;;;;;;6.77;1.63;;;17.10;99.90;;;;;;4981617;28;20491;-90
2023/07/28 05:44:14;;;;;;;2.53;1.53;;;17.10;99.90;;;;;;4997939;28;20505;-89
2023/07/28 05:46:41;;;;;;;7.13;2.00;;;17.10;99.90;;;;;;4993177;28;20464;-90
2023/07/28 05:49:07;;;;;;;6.47;1.80;;;17.10;99.90;;;;;;4977847;28;20478;-90
2023/07/28 05:51:34;;;;;;;3.10;1.50;;;17.20;99.90;;;;;;4988300;28;20429;-89
2023/07/28 05:54:01;;;;;;;2.07;1.50;;;17.20;99.90;;;;;;4997479;28;20471;-90
2023/07/28 05:56:28;;;;;;;3.87;1.50;;;17.20;99.90;;;;;;4988757;28;20468;-90
2023/07/28 05:58:55;;;;;;;9.80;1.80;;;17.20;99.90;;;;;;4995182;28;20482;-88
2023/07/28 06:01:25;;;;;;;6.13;1.43;;;17.30;99.90;;;;;;4985912;28;20493;-90
2023/07/28 06:03:55;;;;;;;4.20;1.27;;;17.30;99.90;;;;;;4989274;28;20482;-91
2023/07/28 06:06:22;;;;;;;9.17;1.57;;;17.40;99.90;;;;;;4985886;28;20897;-90
2023/07/28 06:08:48;;;;;;;4.80;1.30;;;17.40;99.90;;;;;;4988783;28;21000;-89
2023/07/28 06:11:15;;;;;;;2.23;1.10;;;17.50;99.90;;;;;;4986800;28;20438;-90
2023/07/28 06:13:42;;;;;;;3.00;1.30;;;17.60;99.90;;;;;;4983702;28;20435;-90
2023/07/28 06:16:08;;;;;;;4.40;1.50;;;17.60;99.90;;;;;;4982870;28;20936;-90
2023/07/28 06:18:36;;;;;;;1.13;1.03;;;17.70;99.90;;;;;;4984370;28;21027;-89
2023/07/28 06:21:03;;;;;;;4.30;1.00;;;17.70;99.90;;;;;;4990155;28;20465;-90
2023/07/28 06:23:30;;;;;;;1.63;1.20;;;17.70;99.90;;;;;;4986714;28;20452;-89
2023/07/28 06:25:57;;;;;;;3.80;1.20;;;17.70;99.90;;;;;;4994622;28;20469;-91
2023/07/28 06:28:24;;;;;;;1.00;0.90;;;17.70;99.90;;;;;;4985203;28;20987;-90
2023/07/28 06:30:54;;;;;;;2.80;1.37;;;17.80;99.90;;;;;;4986193;28;20833;-89
2023/07/28 06:33:21;;;;;;;2.37;1.13;;;17.80;99.90;;;;;;4986732;28;20510;-89
2023/07/28 06:35:49;;;;;;;3.27;1.30;;;17.90;99.90;;;;;;4990278;28;20448;-90
2023/07/28 06:38:16;;;;;;;3.87;1.30;;;18.00;99.90;;;;;;4983432;28;20471;-90
2023/07/28 06:40:42;;;;;;;2.00;1.20;;;18.00;99.90;;;;;;4986588;28;20537;-90
2023/07/28 06:43:09;;;;;;;2.50;1.10;;;18.10;99.90;;;;;;4980323;28;20520;-90
2023/07/28 06:45:36;;;;;;;4.20;1.10;;;18.20;99.90;;;;;;4986183;28;20996;-90
2023/07/28 06:48:03;;;;;;;1.40;0.87;;;18.30;99.90;;;;;;4982613;28;20483;-90
2023/07/28 06:50:29;;;;;;;3.93;1.33;;;18.30;99.90;;;;;;4992869;28;20487;-90
2023/07/28 06:52:57;;;;;;;1.10;0.90;;;18.40;99.90;;;;;;4995593;28;20509;-90
2023/07/28 06:55:24;;;;;;;4.40;1.10;;;18.40;99.90;;;;;;4994935;28;20521;-90
2023/07/28 06:57:51;;;;;;;2.50;0.90;;;18.50;99.90;;;;;;4980803;28;20485;-90
2023/07/28 07:00:18;;;;;;;5.30;1.17;;;18.60;99.90;;;;;;4995241;28;21008;-89
2023/07/28 07:02:45;;;;;;;2.20;0.70;;;18.60;99.90;;;;;;4994560;28;20487;-90
2023/07/28 07:05:12;;;;;;;2.83;1.03;;;18.60;99.90;;;;;;4994384;28;20494;-89
2023/07/28 07:07:39;;;;;;;5.57;1.50;;;18.60;99.90;;;;;;4979050;28;20523;-90
2023/07/28 07:10:09;;;;;;;7.23;1.07;;;18.70;99.90;;;;;;4994184;28;20503;-89
2023/07/28 07:12:36;;;;;;;2.13;0.90;;;18.70;99.90;;;;;;4986503;28;20460;-89
2023/07/28 07:15:03;;;;;;;2.90;0.90;;;18.70;99.90;;;;;;4990518;28;20514;-90
2023/07/28 07:17:30;;;;;;;3.20;1.03;;;18.70;99.90;;;;;;4995287;28;20455;-90
2023/07/28 07:19:56;;;;;;;1.30;1.10;;;18.80;99.90;;;;;;4996288;28;20448;-92
2023/07/28 07:22:23;;;;;;;1.97;0.80;;;18.80;99.90;;;;;;5007108;28;20499;-92
2023/07/28 07:24:50;;;;;;;3.30;1.47;;;18.70;99.90;;;;;;4994836;28;20463;-89
2023/07/28 07:27:18;;;;;;;1.63;1.10;;;18.90;99.90;;;;;;4980429;28;20456;-90
2023/07/28 07:29:45;;;;;;;1.20;0.90;;;18.90;99.90;;;;;;4989246;28;20546;-90
2023/07/28 07:32:12;;;;;;;1.50;0.80;;;19.00;99.90;;;;;;4993400;28;20953;-89
2023/07/28 07:34:38;;;;;;;1.00;0.90;;;19.10;99.90;;;;;;4994868;28;21048;-91
2023/07/28 07:37:06;;;;;;;1.10;0.90;;;19.10;99.90;;;;;;4993952;28;20870;-90
2023/07/28 07:39:33;;;;;;;1.40;1.00;;;19.10;99.90;;;;;;4993902;28;20507;-90
2023/07/28 07:42:00;;;;;;;4.50;1.00;;;19.10;99.90;;;;;;4993324;28;20569;-90
2023/07/28 07:44:29;;;;;;;1.00;0.80;;;19.10;99.90;;;;;;4993499;28;20538;-89
2023/07/28 07:46:55;;;;;;;2.13;1.13;;;19.20;99.90;;;;;;4981543;28;20510;-90
2023/07/28 07:49:23;;;;;;;1.47;0.80;;;19.30;99.90;;;;;;4982293;28;21069;-90
2023/07/28 07:51:50;;;;;;;1.20;0.87;;;19.30;99.90;;;;;;4993523;28;20538;-90
2023/07/28 07:54:18;;;;;;;1.00;0.80;;;19.40;99.90;;;;;;4993476;28;20459;-90
2023/07/28 07:56:46;;;;;;;1.00;0.80;;;19.50;99.90;;;;;;4993632;28;20806;-91
2023/07/28 07:59:13;;;;;;;2.90;1.00;;;19.60;99.90;;;;;;4993717;28;20583;-90
2023/07/28 08:01:41;;;;;;;1.00;0.80;;;19.60;99.90;;;;;;4993510;28;20482;-90
2023/07/28 08:04:08;;;;;;;1.00;0.90;;;19.70;99.90;;;;;;4979273;28;20475;-90
2023/07/28 08:06:35;;;;;;;1.60;0.80;;;19.60;99.90;;;;;;4983833;28;20811;-90
2023/07/28 08:09:02;;;;;;;2.53;1.00;;;19.60;99.90;;;;;;4993712;28;20501;-90
2023/07/28 08:11:29;;;;;;;1.70;0.90;;;19.70;99.90;;;;;;4976765;28;20464;-90
2023/07/28 08:13:56;;;;;;;5.00;0.90;;;19.70;99.90;;;;;;4992979;28;20510;-88
2023/07/28 08:16:22;;;;;;;1.60;0.90;;;19.80;99.90;;;;;;4993047;28;20498;-89
2023/07/28 08:18:51;;;;;;;1.10;1.00;;;20.00;99.90;;;;;;4993236;28;20511;-90
2023/07/28 08:21:18;;;;;;;2.90;1.00;;;20.10;99.90;;;;;;4993326;28;20497;-91
2023/07/28 08:23:44;;;;;;;1.73;1.00;;;20.30;99.90;;;;;;4984753;28;20459;-89
2023/07/28 08:26:11;;;;;;;3.53;0.97;;;20.20;99.90;;;;;;4992690;28;20514;-87
2023/07/28 08:28:37;;;;;;;1.10;0.97;;;20.20;99.90;;;;;;4992730;28;20464;-90
2023/07/28 08:31:04;;;;;;;2.93;1.10;;;20.20;99.90;;;;;;4990711;28;20455;-90
2023/07/28 08:33:31;;;;;;;1.10;0.90;;;20.20;99.90;;;;;;4994534;28;20458;-91
2023/07/28 08:35:59;;;;;;;4.83;0.90;;;20.20;99.90;;;;;;4979696;28;20458;-90
2023/07/28 08:38:26;;;;;;;1.00;0.80;;;20.20;99.90;;;;;;4993395;28;20854;-89
2023/07/28 08:40:53;;;;;;;1.00;0.90;;;20.20;99.90;;;;;;4985327;28;20459;-90
2023/07/28 08:43:20;;;;;;;1.30;0.80;;;20.30;99.90;;;;;;4987062;28;20467;-90
2023/07/28 08:45:46;;;;;;;3.80;1.27;;;20.40;99.90;;;;;;4986555;28;20459;-90
2023/07/28 08:48:13;;;;;;;1.30;1.00;;;20.40;99.90;;;;;;4994861;28;20479;-90
2023/07/28 08:50:41;;;;;;;1.63;1.00;;;20.50;99.90;;;;;;4994592;28;20462;-91
2023/07/28 08:53:09;;;;;;;1.63;1.00;;;20.50;99.90;;;;;;4989592;28;20452;-90
2023/07/28 08:55:36;;;;;;;2.23;0.90;;;20.50;99.90;;;;;;4992665;28;20443;-90
2023/07/28 08:58:17;;;;;;;1.60;0.93;;;20.60;99.90;;;;;;4996129;28;20483;-90
2023/07/28 09:00:44;;;;;;;1.33;0.90;;;20.60;99.90;;;;;;4994908;28;20514;-91
2023/07/28 09:03:11;;;;;;;5.83;1.00;;;20.80;99.90;;;;;;4988753;28;20550;-90
2023/07/28 09:05:40;;;;;;;2.60;1.10;;;20.90;99.90;;;;;;4989843;28;20458;-87
2023/07/28 09:08:07;;;;;;;1.00;0.80;;;21.10;99.90;;;;;;4993308;28;21023;-89
2023/07/28 09:10:43;;;;;;;2.90;2.27;;;21.10;99.90;;;;;;5002115;28;20455;-89
2023/07/28 09:13:11;;;;;;;1.17;1.07;;;21.20;99.90;;;;;;4990356;28;20478;-88
2023/07/28 09:15:38;;;;;;;2.53;1.10;;;21.10;99.90;;;;;;4998543;28;20989;-88
2023/07/28 09:18:04;;;;;;;1.83;0.93;;;21.30;99.90;;;;;;4998073;28;20474;-88
2023/07/28 09:20:36;;;;;;;1.23;1.10;;;21.20;99.90;;;;;;4998050;28;20462;-89
2023/07/28 09:23:02;;;;;;;1.93;1.03;;;21.70;99.90;;;;;;4997158;28;20541;-88
2023/07/28 09:25:30;;;;;;;1.07;0.97;;;21.70;99.90;;;;;;4996831;28;20455;-89
2023/07/28 09:27:59;;;;;;;3.37;1.10;;;21.70;99.90;;;;;;4981428;28;20471;-87
2023/07/28 09:30:26;;;;;;;1.00;0.90;;;21.70;99.90;;;;;;4989155;28;20451;-88
2023/07/28 09:32:55;;;;;;;2.40;0.80;;;21.70;99.90;;;;;;4982274;28;20527;-88
2023/07/28 09:35:22;;;;;;;1.20;1.00;;;21.70;99.90;;;;;;4989234;28;20517;-88
2023/07/28 09:37:52;;;;;;;1.10;1.00;;;21.70;99.90;;;;;;4988409;28;20501;-88
2023/07/28 09:40:21;;;;;;;2.10;0.87;;;21.80;99.90;;;;;;4996452;28;20466;-88
2023/07/28 09:42:50;;;;;;;1.10;1.00;;;21.80;99.90;;;;;;4993809;28;20887;-88
2023/07/28 09:45:19;;;;;;;1.33;0.90;;;22.00;99.90;;;;;;4983927;28;20439;-88
2023/07/28 09:47:48;;;;;;;1.13;1.03;;;21.90;99.90;;;;;;4996851;28;20505;-89
2023/07/28 09:50:17;;;;;;;1.10;1.00;;;22.00;99.90;;;;;;4986327;28;20523;-88
2023/07/28 09:52:47;;;;;;;1.30;0.93;;;22.00;99.90;;;;;;4985904;28;20448;-88
2023/07/28 09:55:16;;;;;;;1.77;1.00;;;22.00;99.90;;;;;;4985956;28;20480;-88
2023/07/28 09:57:46;;;;;;;1.30;0.90;;;22.00;99.90;;;;;;4977135;28;20464;-88
2023/07/28 10:00:15;;;;;;;1.47;1.00;;;22.20;99.90;;;;;;4978492;28;20459;-88
2023/07/28 10:02:44;;;;;;;1.10;1.00;;;22.30;99.90;;;;;;4995072;28;21020;-88
2023/07/28 10:05:12;;;;;;;2.43;0.90;;;22.40;99.90;;;;;;4997174;28;20491;-88
2023/07/28 10:07:41;;;;;;;1.70;1.03;;;22.40;99.90;;;;;;4988281;28;20479;-89
2023/07/28 10:10:11;;;;;;;1.13;1.03;;;22.50;99.90;;;;;;4983577;28;20467;-89
2023/07/28 10:12:49;;;;;;;1.00;0.80;;;22.50;99.90;;;;;;4994902;28;20456;-89
2023/07/28 10:15:17;;;;;;;2.97;1.43;;;22.50;99.90;;;;;;4996761;28;20813;-88
2023/07/28 10:17:48;;;;;;;3.53;1.03;;;22.40;99.90;;;;;;4996038;28;20569;-88
2023/07/28 10:20:35;;;;;;;2.43;0.90;;;22.30;99.90;;;;;;4991301;28;20452;-89
2023/07/28 10:23:07;;;;;;;1.10;0.90;;;22.30;99.90;;;;;;4962456;28;20488;-89
2023/07/28 10:25:36;;;;;;;1.00;0.80;;;22.20;99.90;;;;;;4996762;28;20436;-89
2023/07/28 10:28:03;;;;;;;1.10;0.97;;;22.30;99.90;;;;;;5004018;28;20459;-89
2023/07/28 10:30:37;;;;;;;4.80;0.97;;;22.40;99.90;;;;;;5005569;28;20468;-88
2023/07/28 10:33:05;;;;;;;1.00;0.83;;;22.60;99.90;;;;;;4977857;28;20446;-88
2023/07/28 10:35:33;;;;;;;1.30;1.00;;;22.60;99.90;;;;;;4992547;28;20491;-89
2023/07/28 10:38:31;;;;;;;1.10;1.00;;;22.80;99.90;;;;;;4996600;28;20463;-89
2023/07/28 10:41:10;;;;;;;2.17;1.00;;;23.10;99.90;;;;;;4987941;28;20459;-89
2023/07/28 10:43:38;;;;;;;1.27;1.00;;;23.20;99.90;;;;;;4996242;28;20503;-89
2023/07/28 10:46:07;;;;;;;1.27;1.10;;;23.30;99.90;;;;;;4996018;28;20447;-86
2023/07/28 10:48:36;;;;;;;1.80;0.83;;;23.70;99.90;;;;;;4980657;28;20878;-89
2023/07/28 10:51:02;;;;;;;1.70;0.80;;;23.80;99.90;;;;;;4985541;28;20903;-89
2023/07/28 10:53:29;;;;;;;1.10;0.83;;;23.90;99.90;;;;;;4992066;28;20458;-89
2023/07/28 10:55:56;;;;;;;2.03;0.90;;;23.90;99.90;;;;;;4996530;28;20463;-88
2023/07/28 10:58:23;;;;;;;1.07;0.97;;;23.90;99.90;;;;;;4996188;28;20486;-89
2023/07/28 11:00:51;;;;;;;1.00;0.90;;;23.80;99.90;;;;;;4996570;28;20471;-87
2023/07/28 11:03:19;;;;;;;1.20;1.10;;;24.20;99.90;;;;;;4998026;28;21045;-89
2023/07/28 11:05:50;;;;;;;0.97;0.70;;;24.40;99.90;;;;;;4979310;28;20448;-88
2023/07/28 11:08:17;;;;;;;1.20;1.00;;;24.40;99.90;;;;;;4991625;28;20506;-89
2023/07/28 11:10:44;;;;;;;2.07;1.00;;;23.90;99.90;;;;;;4996647;28;20463;-89
2023/07/28 11:13:11;;;;;;;2.60;1.20;;;23.70;99.90;;;;;;4992729;28;20541;-89
2023/07/28 11:15:38;;;;;;;1.10;1.00;;;23.60;99.90;;;;;;4986912;28;20454;-89
2023/07/28 11:18:06;;;;;;;2.70;1.10;;;23.60;99.90;;;;;;4996092;28;20471;-89
2023/07/28 11:20:32;;;;;;;1.17;1.00;;;23.60;99.90;;;;;;4980130;28;20504;-89
2023/07/28 11:23:03;;;;;;;1.20;1.03;;;23.80;99.90;;;;;;4994705;28;20534;-88
2023/07/28 11:25:30;;;;;;;2.37;0.80;;;23.90;99.90;;;;;;4994811;28;20509;-88
2023/07/28 11:27:57;;;;;;;1.00;0.90;;;24.10;99.90;;;;;;4994546;28;20482;-88
2023/07/28 11:30:24;;;;;;;1.00;0.90;;;24.10;99.90;;;;;;4988512;28;20448;-88
2023/07/28 11:32:53;;;;;;;1.07;0.97;;;24.20;99.90;;;;;;4986449;28;20499;-87
2023/07/28 11:35:21;;;;;;;3.00;1.00;;;24.40;99.90;;;;;;4997037;28;20475;-89
2023/07/28 11:37:50;;;;;;;1.50;1.07;;;24.70;99.90;;;;;;4995451;28;20463;-89
2023/07/28 11:40:20;;;;;;;1.40;0.83;;;25.10;99.90;;;;;;4994785;28;20447;-89
2023/07/28 11:42:50;;;;;;;1.00;0.80;;;25.20;99.90;;;;;;4986689;28;20519;-88
2023/07/28 11:45:19;;;;;;;1.10;1.00;;;25.00;99.90;;;;;;4995193;28;20456;-89
2023/07/28 11:48:01;;;;;;;1.30;0.80;;;24.80;99.90;;;;;;4993804;28;20491;-88
2023/07/28 11:50:29;;;;;;;1.00;0.70;;;24.60;99.90;;;;;;4981158;28;20868;-89
2023/07/28 11:52:57;;;;;;;7.80;0.90;;;25.00;99.90;;;;;;4994056;28;20945;-88
2023/07/28 11:55:26;;;;;;;1.00;0.73;;;25.50;99.90;;;;;;4980117;28;20946;-88
2023/07/28 11:57:53;;;;;;;2.37;1.00;;;25.50;99.90;;;;;;4992509;28;20479;-87
2023/07/28 12:00:29;;;;;;;1.10;0.90;;;25.40;99.90;;;;;;4994437;28;20486;-88
2023/07/28 12:03:04;;;;;;;1.03;0.90;;;25.10;99.90;;;;;;4985489;28;20570;-88
2023/07/28 12:05:32;;;;;;;1.60;0.90;;;24.90;99.90;;;;;;4990618;28;20462;-88
2023/07/28 12:07:58;;;;;;;1.00;0.80;;;24.80;99.90;;;;;;4995187;28;20483;-88
2023/07/28 12:10:27;;;;;;;1.03;0.93;;;24.90;99.90;;;;;;4988936;28;20452;-87
2023/07/28 12:12:54;;;;;;;1.83;0.90;;;25.00;99.90;;;;;;4992988;28;20498;-89
2023/07/28 12:15:23;;;;;;;2.70;1.03;;;25.00;99.90;;;;;;4994847;28;21020;-88
2023/07/28 12:18:08;;;;;;;1.30;0.80;;;24.80;99.90;;;;;;4977143;28;20989;-88
2023/07/28 12:20:35;;;;;;;1.20;1.00;;;24.60;99.90;;;;;;4994895;28;20816;-88
2023/07/28 12:23:02;;;;;;;1.00;0.90;;;24.40;99.90;;;;;;4992004;28;20473;-88
2023/07/28 12:25:30;;;;;;;4.90;0.97;;;24.20;99.90;;;;;;4981694;28;20478;-89
2023/07/28 12:27:57;;;;;;;1.17;1.07;;;24.00;99.90;;;;;;4994522;28;20537;-88
2023/07/28 12:30:24;;;;;;;7.90;1.10;;;23.90;99.90;;;;;;4981604;28;20471;-88
2023/07/28 12:32:50;;;;;;;1.00;0.90;;;23.80;99.90;;;;;;4993828;28;20451;-88
2023/07/28 12:35:17;;;;;;;1.47;1.20;;;23.80;99.90;;;;;;4996879;28;20463;-89
2023/07/28 12:37:44;;;;;;;5.43;0.90;;;24.00;99.90;;;;;;4994058;28;20888;-88
2023/07/28 12:40:11;;;;;;;4.60;1.10;;;24.20;99.90;;;;;;4995649;28;20448;-89
2023/07/28 12:42:40;;;;;;;1.10;1.00;;;24.60;99.90;;;;;;4999109;28;20491;-90
2023/07/28 12:45:08;;;;;;;1.03;0.93;;;24.80;99.90;;;;;;4999351;28;20452;-89
2023/07/28 12:47:35;;;;;;;1.00;0.90;;;24.80;99.90;;;;;;4992127;28;20474;-89